Time;durP1;ratioP1;P1;durP2;ratioP2;P2;SDS_P1;SDS_P2;PMS_P1;PMS_P2;Temp;Humidity;BMP_temperature;BMP_pressure;BME280_temperature;BME280_humidity;BME280_pressure;Samples;Min_cycle;Max_cycle;Signal;HPM_P1;HPM_P2
2023/01/02 00:02:14;;;;;;;80.55;40.33;;;;;;;3.09;100.00;98803.14;1731259;82;21042;-79
2023/01/02 00:04:41;;;;;;;84.47;40.23;;;;;;;3.04;100.00;98799.75;1730919;82;21012;-78
2023/01/02 00:07:08;;;;;;;72.62;34.63;;;;;;;2.98;100.00;98803.79;1731183;82;21004;-78
2023/01/02 00:09:34;;;;;;;68.78;34.10;;;;;;;2.86;100.00;98800.95;1730849;82;20996;-77
2023/01/02 00:12:01;;;;;;;75.08;39.30;;;;;;;2.93;100.00;98806.30;1731200;82;21897;-78
2023/01/02 00:14:28;;;;;;;70.90;39.15;;;;;;;2.89;100.00;98803.20;1730858;82;21016;-78
2023/01/02 00:16:55;;;;;;;74.58;38.83;;;;;;;2.82;100.00;98803.77;1731065;82;21499;-77
2023/01/02 00:19:22;;;;;;;67.72;32.98;;;;;;;2.80;100.00;98801.79;1730890;82;20992;-76
2023/01/02 00:21:49;;;;;;;73.00;34.18;;;;;;;2.76;100.00;98803.26;1731182;82;21040;-78
2023/01/02 00:24:16;;;;;;;63.13;33.20;;;;;;;2.74;100.00;98796.78;1730850;82;21154;-77
2023/01/02 00:26:43;;;;;;;58.25;30.95;;;;;;;2.71;100.00;98795.84;1731117;82;21251;-76
2023/01/02 00:29:10;;;;;;;54.73;28.40;;;;;;;2.69;100.00;98798.44;1730954;82;21479;-77
2023/01/02 00:31:37;;;;;;;53.48;28.47;;;;;;;2.68;100.00;98798.95;1731117;82;20953;-76
2023/01/02 00:34:04;;;;;;;51.77;27.70;;;;;;;2.69;100.00;98797.09;1738316;81;20996;-78
2023/01/02 00:36:31;;;;;;;68.45;33.92;;;;;;;2.68;100.00;98791.44;1745887;82;21139;-78
2023/01/02 00:38:57;;;;;;;55.90;31.20;;;;;;;2.67;100.00;98795.97;1768477;81;20988;-77
2023/01/02 00:41:24;;;;;;;62.60;32.48;;;;;;;2.67;100.00;98793.81;1768791;81;21413;-79
2023/01/02 00:43:51;;;;;;;54.50;29.50;;;;;;;2.65;100.00;98793.17;1745525;82;21002;-77
2023/01/02 00:46:18;;;;;;;57.93;32.50;;;;;;;2.63;100.00;98795.25;1768742;81;21496;-77
2023/01/02 00:48:45;;;;;;;68.62;35.33;;;;;;;2.57;100.00;98788.91;1768572;81;21073;-77
2023/01/02 00:51:12;;;;;;;59.85;29.87;;;;;;;2.51;100.00;98791.06;1745888;81;21527;-77
2023/01/02 00:53:39;;;;;;;62.75;35.35;;;;;;;2.47;100.00;98791.16;1768621;81;21016;-78
2023/01/02 00:56:06;;;;;;;65.72;34.80;;;;;;;2.34;100.00;98790.69;1769220;81;21508;-79
2023/01/02 00:58:33;;;;;;;69.95;32.60;;;;;;;2.25;100.00;98792.75;1769470;81;21000;-79
2023/01/02 01:01:00;;;;;;;69.42;33.15;;;;;;;2.23;100.00;98794.81;1769572;81;21838;-76
2023/01/02 01:03:28;;;;;;;60.90;32.13;;;;;;;2.17;100.00;98790.28;1769383;81;21046;-77
2023/01/02 01:05:55;;;;;;;63.10;29.80;;;;;;;2.17;100.00;98800.16;1768593;81;20988;-77
2023/01/02 01:08:22;;;;;;;51.55;27.80;;;;;;;2.22;100.00;98800.34;1745747;81;21052;-76
2023/01/02 01:10:50;;;;;;;54.45;27.90;;;;;;;2.19;100.00;98798.09;1768864;81;21003;-76
2023/01/02 01:13:17;;;;;;;52.23;29.63;;;;;;;2.17;100.00;98802.84;1768830;81;21161;-78
2023/01/02 01:15:44;;;;;;;60.73;32.67;;;;;;;2.10;100.00;98791.31;1745823;82;21004;-76
2023/01/02 01:18:11;;;;;;;56.10;31.73;;;;;;;2.05;100.00;98791.95;1768411;81;21346;-79
2023/01/02 01:20:38;;;;;;;60.80;30.05;;;;;;;2.02;100.00;98788.34;1713679;81;21473;-76
2023/01/02 01:23:05;;;;;;;57.20;32.55;;;;;;;1.98;100.00;98783.11;1768614;81;21045;-78
2023/01/02 01:25:32;;;;;;;59.03;29.80;;;;;;;1.92;100.00;98783.92;1745844;82;21902;-78
2023/01/02 01:27:59;;;;;;;52.90;28.90;;;;;;;1.85;100.00;98791.11;1768633;81;21134;-78
2023/01/02 01:30:26;;;;;;;54.93;29.02;;;;;;;1.83;100.00;98789.16;1745826;82;21433;-78
2023/01/02 01:32:53;;;;;;;46.15;25.62;;;;;;;1.82;100.00;98784.84;1768515;81;21012;-76
2023/01/02 01:35:20;;;;;;;47.25;25.37;;;;;;;1.80;100.00;98781.56;1751085;81;21012;-77
2023/01/02 01:37:47;;;;;;;47.70;25.10;;;;;;;1.79;100.00;98774.55;1772666;81;21602;-78
2023/01/02 01:40:14;;;;;;;47.67;23.90;;;;;;;1.80;100.00;98780.23;1772814;81;20987;-79
2023/01/02 01:42:41;;;;;;;51.83;26.10;;;;;;;1.83;100.00;98777.95;1772832;81;21011;-78
2023/01/02 01:45:13;;;;;;;47.75;25.72;;;;;;;1.84;100.00;98774.25;1772399;81;20992;-78
2023/01/02 01:47:46;;;;;;;46.73;23.07;;;;;;;1.86;100.00;98771.37;1772803;80;21020;-76
2023/01/02 01:50:23;;;;;;;45.03;21.80;;;;;;;1.91;100.00;98773.74;1773001;80;21061;-77
2023/01/02 01:53:10;;;;;;;39.27;20.88;;;;;;;1.96;100.00;98768.58;1772724;80;21520;-78
2023/01/02 01:55:47;;;;;;;41.80;21.95;;;;;;;1.97;100.00;98761.41;1762166;80;21075;-76
2023/01/02 01:58:18;;;;;;;42.30;19.87;;;;;;;1.96;100.00;98756.55;1733539;82;21012;-77
2023/01/02 02:00:45;;;;;;;36.83;19.35;;;;;;;1.98;100.00;98757.71;1733559;82;21488;-76
2023/01/02 02:03:16;;;;;;;38.92;21.33;;;;;;;2.02;100.00;98754.92;1733514;82;21079;-78
2023/01/02 02:05:43;;;;;;;43.78;22.15;;;;;;;2.16;100.00;98752.55;1733490;82;21020;-78
2023/01/02 02:08:17;;;;;;;32.38;20.27;;;;;;;2.25;100.00;98749.96;1733372;82;21035;-77
2023/01/02 02:10:45;;;;;;;39.90;21.10;;;;;;;2.32;100.00;98747.80;1733776;82;21055;-78
2023/01/02 02:13:13;;;;;;;38.50;20.20;;;;;;;2.35;100.00;98752.72;1733497;81;21007;-78
2023/01/02 02:16:12;;;;;;;40.10;22.05;;;;;;;2.34;100.00;98746.55;1733557;82;21171;-77
2023/01/02 02:19:14;;;;;;;41.55;20.62;;;;;;;2.27;100.00;98745.73;1733478;82;21004;-78
2023/01/02 02:22:07;;;;;;;31.30;18.65;;;;;;;2.22;100.00;98740.17;1732984;81;21079;-78
2023/01/02 02:24:57;;;;;;;30.95;18.20;;;;;;;2.18;100.00;98742.45;1733383;82;21072;-78
2023/01/02 02:28:07;;;;;;;31.62;17.35;;;;;;;2.19;100.00;98737.93;1733644;82;21044;-78
2023/01/02 02:30:51;;;;;;;34.63;18.50;;;;;;;2.20;100.00;98732.88;1733560;82;21457;-76
2023/01/02 02:33:44;;;;;;;34.63;18.57;;;;;;;2.25;100.00;98731.23;1733439;82;21044;-78
2023/01/02 02:36:47;;;;;;;32.67;18.82;;;;;;;2.26;100.00;98732.06;1733722;82;21413;-79
2023/01/02 02:39:42;;;;;;;38.55;18.85;;;;;;;2.25;100.00;98734.44;1733139;82;21038;-76
2023/01/02 02:42:26;;;;;;;37.08;20.77;;;;;;;2.28;100.00;98731.84;1732970;82;21042;-76
2023/01/02 02:45:07;;;;;;;40.52;21.35;;;;;;;2.28;100.00;98733.19;1733274;82;21043;-78
2023/01/02 02:47:49;;;;;;;40.83;21.30;;;;;;;2.24;100.00;98728.27;1733547;82;21008;-78
2023/01/02 02:50:40;;;;;;;36.75;19.60;;;;;;;2.21;100.00;98724.65;1732146;82;21597;-78
2023/01/02 02:53:20;;;;;;;33.30;18.57;;;;;;;2.13;100.00;98720.86;1733433;82;21294;-76
2023/01/02 02:55:49;;;;;;;35.80;19.73;;;;;;;2.12;100.00;98721.07;1742358;81;21011;-76
2023/01/02 02:58:16;;;;;;;38.20;19.25;;;;;;;2.10;100.00;98721.28;1763851;81;21063;-76
2023/01/02 03:00:43;;;;;;;39.33;21.20;;;;;;;2.07;100.00;98721.71;1707425;81;21114;-78
2023/01/02 03:03:21;;;;;;;33.25;18.60;;;;;;;2.00;100.00;98718.22;1763917;81;21027;-76
2023/01/02 03:06:09;;;;;;;35.83;20.70;;;;;;;2.05;100.00;98712.23;1761247;81;21066;-76
2023/01/02 03:08:57;;;;;;;42.48;22.65;;;;;;;1.99;100.00;98709.89;1758614;81;21122;-76
2023/01/02 03:11:29;;;;;;;35.28;21.75;;;;;;;1.94;100.00;98714.52;1763294;81;21945;-76
2023/01/02 03:14:02;;;;;;;47.90;27.58;;;;;;;1.84;100.00;98712.78;1760484;81;21447;-78
2023/01/02 03:16:36;;;;;;;47.80;25.30;;;;;;;1.82;100.00;98714.02;1731580;81;21563;-76
2023/01/02 03:19:10;;;;;;;42.62;22.67;;;;;;;1.73;100.00;98712.59;1763832;81;21015;-78
2023/01/02 03:22:04;;;;;;;46.73;23.52;;;;;;;1.69;100.00;98705.48;1763872;81;21034;-77
2023/01/02 03:24:31;;;;;;;40.25;22.50;;;;;;;1.65;100.00;98704.27;1763571;81;21516;-76
2023/01/02 03:27:01;;;;;;;36.48;21.82;;;;;;;1.68;100.00;98699.83;1764120;81;21015;-78
2023/01/02 03:29:44;;;;;;;37.70;22.45;;;;;;;1.74;100.00;98704.87;1763533;81;21515;-78
2023/01/02 03:32:28;;;;;;;49.75;24.32;;;;;;;1.70;100.00;98702.59;1764071;81;21023;-79
2023/01/02 03:34:55;;;;;;;39.90;24.27;;;;;;;1.57;100.00;98708.47;1763806;81;21011;-76
2023/01/02 03:37:28;;;;;;;36.23;22.65;;;;;;;1.58;100.00;98698.91;1763815;81;21177;-76
2023/01/02 03:39:58;;;;;;;49.75;24.15;;;;;;;1.65;100.00;98702.41;1732281;81;21385;-78
2023/01/02 03:42:31;;;;;;;38.40;20.23;;;;;;;1.71;100.00;98703.45;1763722;81;20999;-76
2023/01/02 03:45:09;;;;;;;43.15;23.62;;;;;;;1.74;100.00;98698.20;1763737;81;21461;-76
2023/01/02 03:47:54;;;;;;;40.45;22.87;;;;;;;1.76;100.00;98701.48;1760704;81;21007;-78
2023/01/02 03:50:25;;;;;;;43.95;22.50;;;;;;;1.75;100.00;98698.50;1763600;81;21635;-78
2023/01/02 03:52:52;;;;;;;36.00;19.23;;;;;;;1.74;100.00;98692.86;1763325;81;21480;-78
2023/01/02 03:55:19;;;;;;;36.08;20.05;;;;;;;1.68;100.00;98695.83;1759272;81;21020;-76
2023/01/02 03:57:57;;;;;;;33.98;20.45;;;;;;;1.67;100.00;98689.66;1733409;82;21007;-78
2023/01/02 04:00:29;;;;;;;33.28;18.02;;;;;;;1.69;100.00;98685.44;1733333;82;21000;-76
2023/01/02 04:03:08;;;;;;;29.85;18.02;;;;;;;1.75;100.00;98684.63;1733716;82;21071;-76
2023/01/02 04:05:45;;;;;;;30.57;16.57;;;;;;;1.79;100.00;98682.34;1733345;82;21004;-77
2023/01/02 04:08:25;;;;;;;29.77;17.17;;;;;;;1.95;100.00;98680.58;1733652;82;21436;-78
2023/01/02 04:10:53;;;;;;;33.88;20.52;;;;;;;2.04;100.00;98683.34;1733142;82;20987;-77
2023/01/02 04:13:38;;;;;;;43.13;23.87;;;;;;;2.09;100.00;98691.57;1733478;82;21476;-77
2023/01/02 04:16:08;;;;;;;31.70;17.60;;;;;;;1.98;100.00;98689.55;1732301;82;21219;-77
2023/01/02 04:18:39;;;;;;;34.10;18.40;;;;;;;1.93;100.00;98695.50;1733244;82;21043;-78
2023/01/02 04:21:10;;;;;;;37.23;18.42;;;;;;;1.91;100.00;98700.23;1733431;82;21023;-78
2023/01/02 04:23:41;;;;;;;43.30;22.35;;;;;;;1.97;100.00;98694.07;1733355;82;21004;-76
2023/01/02 04:26:19;;;;;;;33.05;18.92;;;;;;;1.94;100.00;98691.80;1733653;82;21020;-77
2023/01/02 04:28:46;;;;;;;34.18;16.27;;;;;;;1.92;100.00;98691.19;1732623;82;21035;-78
2023/01/02 04:31:20;;;;;;;29.60;16.57;;;;;;;2.00;100.00;98694.16;1678897;82;21019;-78
2023/01/02 04:33:51;;;;;;;30.88;16.62;;;;;;;2.02;100.00;98697.95;1736317;81;21016;-78
2023/01/02 04:36:18;;;;;;;31.15;18.62;;;;;;;1.99;100.00;98700.54;1744447;82;21052;-76
2023/01/02 04:38:45;;;;;;;37.38;17.12;;;;;;;1.96;100.00;98701.75;1768524;81;22100;-77
2023/01/02 04:41:16;;;;;;;31.70;16.90;;;;;;;1.96;100.00;98692.40;1768457;81;21014;-77
2023/01/02 04:43:43;;;;;;;25.80;14.95;;;;;;;1.94;100.00;98689.13;1715595;82;21028;-78
2023/01/02 04:46:10;;;;;;;29.67;16.35;;;;;;;1.99;100.00;98688.51;1768432;81;21515;-76
2023/01/02 04:48:39;;;;;;;27.10;17.60;;;;;;;2.06;100.00;98687.98;1745642;82;26507;-77
2023/01/02 04:51:06;;;;;;;38.08;20.05;;;;;;;2.01;100.00;98686.45;1768430;81;21020;-76
2023/01/02 04:53:32;;;;;;;66.53;31.85;;;;;;;1.92;100.00;98685.84;1745671;82;21174;-77
2023/01/02 04:55:59;;;;;;;102.22;51.50;;;;;;;1.74;100.00;98688.84;1764587;81;21060;-78
2023/01/02 04:58:26;;;;;;;83.82;45.50;;;;;;;1.66;100.00;98688.53;1731992;82;20995;-79
2023/01/02 05:00:54;;;;;;;68.50;34.35;;;;;;;1.66;100.00;98685.35;1750932;82;21454;-78
2023/01/02 05:03:21;;;;;;;71.80;35.35;;;;;;;1.71;100.00;98683.41;1731876;82;21000;-78
2023/01/02 05:05:47;;;;;;;106.55;50.90;;;;;;;1.74;100.00;98683.50;1750867;81;21187;-77
2023/01/02 05:08:14;;;;;;;155.32;68.45;;;;;;;1.73;100.00;98677.85;1732020;82;20976;-77
2023/01/02 05:10:41;;;;;;;178.57;82.33;;;;;;;1.75;100.00;98679.28;1750951;82;21520;-76
2023/01/02 05:13:08;;;;;;;153.07;70.67;;;;;;;1.74;100.00;98675.48;1732080;82;21086;-78
2023/01/02 05:15:35;;;;;;;114.52;54.98;;;;;;;1.72;100.00;98673.55;1751070;82;21486;-77
2023/01/02 05:18:02;;;;;;;96.25;45.85;;;;;;;1.68;100.00;98666.44;1732096;82;21077;-77
2023/01/02 05:20:29;;;;;;;80.62;37.50;;;;;;;1.68;100.00;98667.77;1750875;82;21002;-76
2023/01/02 05:25:41;;;;;;;69.15;31.30;;;;;;;1.59;100.00;98664.48;1751178;81;20994;-76
2023/01/02 05:28:08;;;;;;;56.68;26.48;;;;;;;1.57;100.00;98661.21;1732282;82;21007;-78
2023/01/02 05:30:37;;;;;;;41.80;22.98;;;;;;;1.57;100.00;98657.72;1751216;81;21065;-78
2023/01/02 05:33:04;;;;;;;42.93;23.87;;;;;;;1.60;100.00;98652.77;1732289;82;21440;-78
2023/01/02 05:35:32;;;;;;;45.30;22.65;;;;;;;1.61;100.00;98662.42;1760739;81;21008;-76
2023/01/02 05:38:00;;;;;;;50.48;23.90;;;;;;;1.67;100.00;98668.28;1750735;82;21025;-76
2023/01/02 05:40:27;;;;;;;54.58;24.23;;;;;;;1.68;100.00;98659.75;1771180;81;21043;-76
2023/01/02 05:42:54;;;;;;;55.60;28.77;;;;;;;1.65;100.00;98655.66;1750677;81;21061;-78
2023/01/02 05:45:21;;;;;;;65.65;32.63;;;;;;;1.61;100.00;98647.73;1771065;81;21004;-78
2023/01/02 05:47:48;;;;;;;65.32;29.63;;;;;;;1.57;100.00;98655.05;1771290;81;21045;-78
2023/01/02 05:50:15;;;;;;;62.62;31.42;;;;;;;1.46;100.00;98657.83;1750616;82;21282;-78
2023/01/02 05:52:42;;;;;;;57.33;30.40;;;;;;;1.38;100.00;98656.70;1771229;81;21016;-77
2023/01/02 05:55:09;;;;;;;56.65;28.20;;;;;;;1.36;100.00;98652.87;1770278;81;21484;-78
2023/01/02 05:57:36;;;;;;;52.27;27.52;;;;;;;1.33;100.00;98660.48;1732156;82;20998;-77
2023/01/02 06:00:03;;;;;;;57.20;29.40;;;;;;;1.32;100.00;98652.17;1749281;81;21519;-78
2023/01/02 06:02:32;;;;;;;39.92;22.55;;;;;;;1.32;100.00;98652.17;1747000;81;21451;-77
2023/01/02 06:04:59;;;;;;;57.78;37.58;;;;;;;1.44;100.00;98650.52;1726605;81;21075;-77
2023/01/02 06:07:26;;;;;;;61.75;31.70;;;;;;;1.61;100.00;98658.42;1745948;82;21726;-79
2023/01/02 06:09:53;;;;;;;64.45;31.33;;;;;;;1.73;100.00;98651.13;1760849;79;21015;-76
2023/01/02 06:12:19;;;;;;;52.95;28.42;;;;;;;1.78;100.00;98643.30;1780318;80;21508;-78
2023/01/02 06:14:46;;;;;;;58.28;26.80;;;;;;;1.84;100.00;98651.31;1776676;80;21060;-77
2023/01/02 06:17:13;;;;;;;39.48;21.80;;;;;;;1.88;100.00;98655.71;1782681;80;21000;-78
2023/01/02 06:19:40;;;;;;;43.80;21.87;;;;;;;1.84;100.00;98648.64;1764293;80;21150;-78
2023/01/02 06:22:07;;;;;;;38.02;21.02;;;;;;;1.84;100.00;98647.30;1731235;82;21409;-77
2023/01/02 06:24:34;;;;;;;35.10;19.87;;;;;;;1.83;100.00;98651.52;1730893;82;21047;-76
2023/01/02 06:27:01;;;;;;;45.08;26.73;;;;;;;1.85;100.00;98650.28;1731087;82;21043;-78
2023/01/02 06:29:28;;;;;;;39.83;24.10;;;;;;;1.77;100.00;98651.83;1730989;82;21032;-76
2023/01/02 06:31:55;;;;;;;39.85;25.45;;;;;;;1.75;100.00;98648.55;1765176;80;21062;-78
2023/01/02 06:34:22;;;;;;;47.08;27.15;;;;;;;1.75;100.00;98643.20;1746329;81;21455;-78
2023/01/02 06:36:49;;;;;;;67.17;35.58;;;;;;;1.72;100.00;98646.30;1709939;81;36112;-76
2023/01/02 06:39:16;;;;;;;54.03;30.85;;;;;;;1.73;100.00;98642.60;1746997;81;21024;-78
2023/01/02 06:41:43;;;;;;;53.80;28.40;;;;;;;1.72;100.00;98648.98;1740372;81;21513;-79
2023/01/02 06:44:12;;;;;;;62.58;29.25;;;;;;;1.73;100.00;98650.62;1731095;82;21060;-78
2023/01/02 06:46:39;;;;;;;65.20;34.45;;;;;;;1.74;100.00;98652.77;1757935;81;21004;-78
2023/01/02 06:49:06;;;;;;;64.92;33.40;;;;;;;1.80;100.00;98656.78;1750149;81;21467;-78
2023/01/02 06:51:33;;;;;;;77.25;38.45;;;;;;;1.88;100.00;98652.55;1766565;80;20980;-78
2023/01/02 06:54:00;;;;;;;71.10;37.70;;;;;;;1.93;100.00;98657.26;1764941;80;21513;-76
2023/01/02 06:56:26;;;;;;;60.12;36.10;;;;;;;1.94;100.00;98656.22;1731411;80;21003;-77
2023/01/02 06:58:53;;;;;;;52.83;27.52;;;;;;;1.95;100.00;98655.19;1731010;82;21514;-77
2023/01/02 07:01:21;;;;;;;46.65;26.10;;;;;;;1.92;100.00;98652.43;1744173;81;20999;-77
2023/01/02 07:03:48;;;;;;;44.63;24.23;;;;;;;1.92;100.00;98655.10;1730686;82;21059;-78
2023/01/02 07:06:18;;;;;;;53.30;25.35;;;;;;;1.94;100.00;98654.38;1738301;80;21068;-78
2023/01/02 07:08:45;;;;;;;40.00;22.05;;;;;;;1.94;100.00;98652.22;1749012;80;21419;-77
2023/01/02 07:11:18;;;;;;;39.58;23.30;;;;;;;1.98;100.00;98662.30;1752882;81;21060;-77
2023/01/02 07:13:46;;;;;;;45.17;24.82;;;;;;;2.02;100.00;98656.00;1755928;81;21061;-76
2023/01/02 07:16:15;;;;;;;35.60;23.00;;;;;;;2.05;100.00;98654.75;1753950;81;21009;-78
2023/01/02 07:18:42;;;;;;;;;;;;;;;2.05;100.00;98650.26;1756251;80;21064;-76
2023/01/02 07:21:09;;;;;;;48.20;26.25;;;;;;;2.03;100.00;98648.28;1750848;81;20954;-78
2023/01/02 07:23:36;;;;;;;51.50;26.45;;;;;;;2.04;100.00;98647.25;1750402;81;21016;-76
2023/01/02 07:26:04;;;;;;;49.30;26.70;;;;;;;2.08;100.00;98645.81;1761056;79;21015;-78
2023/01/02 07:28:32;;;;;;;57.80;33.18;;;;;;;2.11;100.00;98647.24;1755914;81;21481;-79
2023/01/02 07:31:07;;;;;;;58.15;32.90;;;;;;;2.15;100.00;98649.30;1764889;79;21075;-76
2023/01/02 07:33:35;;;;;;;61.55;38.42;;;;;;;2.20;100.00;98643.30;1750302;79;21635;-78
2023/01/02 07:36:04;;;;;;;61.98;33.98;;;;;;;2.26;100.00;98640.61;1756383;81;21034;-78
2023/01/02 07:38:32;;;;;;;64.60;35.00;;;;;;;2.30;100.00;98646.87;1749651;81;21071;-78
2023/01/02 07:40:59;;;;;;;53.40;31.60;;;;;;;2.33;100.00;98649.95;1738345;79;21023;-77
2023/01/02 07:43:26;;;;;;;52.33;29.30;;;;;;;2.38;100.00;98648.79;1762810;79;21064;-78
2023/01/02 07:45:53;;;;;;;47.95;27.37;;;;;;;2.47;100.00;98650.71;1760153;79;21079;-78
2023/01/02 07:48:20;;;;;;;51.58;28.67;;;;;;;2.57;100.00;98652.44;1756549;79;21042;-77
2023/01/02 07:50:47;;;;;;;55.38;30.68;;;;;;;2.65;100.00;98655.36;1761313;79;21013;-79
2023/01/02 07:53:14;;;;;;;67.17;30.30;;;;;;;2.72;100.00;98658.83;1770045;79;20981;-77
2023/01/02 07:55:41;;;;;;;56.58;31.60;;;;;;;2.77;100.00;98653.16;1742771;79;21321;-76
2023/01/02 07:58:08;;;;;;;60.43;32.73;;;;;;;2.87;100.00;98654.55;1754261;81;21603;-77
2023/01/02 08:00:34;;;;;;;68.17;37.60;;;;;;;2.93;100.00;98642.98;1757766;79;21052;-76
2023/01/02 08:03:01;;;;;;;69.97;37.50;;;;;;;2.96;100.00;98646.04;1747871;79;21587;-78
2023/01/02 08:05:28;;;;;;;73.60;41.68;;;;;;;3.10;100.00;98650.80;1753833;79;21031;-78
2023/01/02 08:07:55;;;;;;;62.25;36.23;;;;;;;3.20;100.00;98651.66;1748567;80;21027;-77
2023/01/02 08:10:22;;;;;;;61.85;37.60;;;;;;;3.25;100.00;98649.17;1743507;81;21057;-78
2023/01/02 08:12:49;;;;;;;63.48;38.05;;;;;;;3.22;100.00;98650.92;1755672;80;21091;-76
2023/01/02 08:15:16;;;;;;;73.83;37.70;;;;;;;3.22;100.00;98650.92;1756735;80;21447;-79
2023/01/02 08:17:43;;;;;;;56.37;33.80;;;;;;;3.27;100.00;98647.91;1749850;80;21303;-77
2023/01/02 08:20:10;;;;;;;73.22;41.95;;;;;;;3.38;100.00;98647.19;1746766;80;21001;-77
2023/01/02 08:22:37;;;;;;;67.58;39.48;;;;;;;3.50;100.00;98647.29;1763208;80;21483;-78
2023/01/02 08:25:07;;;;;;;66.85;42.00;;;;;;;3.58;100.00;98651.56;1749157;80;21079;-77
2023/01/02 08:27:34;;;;;;;69.32;43.38;;;;;;;3.62;100.00;98643.40;1741535;81;21499;-77
2023/01/02 08:30:01;;;;;;;73.28;44.55;;;;;;;3.74;100.00;98640.80;1765740;80;21056;-78
2023/01/02 08:32:28;;;;;;;61.50;36.60;;;;;;;3.81;100.00;98636.20;1744039;81;21535;-76
2023/01/02 08:34:55;;;;;;;57.55;35.78;;;;;;;3.93;100.00;98635.27;1760460;80;21056;-78
2023/01/02 08:37:21;;;;;;;59.30;34.25;;;;;;;4.09;100.00;98637.05;1754332;80;21087;-78
2023/01/02 08:39:48;;;;;;;74.90;38.83;;;;;;;4.23;100.00;98624.62;1739087;81;21022;-76
2023/01/02 08:42:15;;;;;;;89.45;43.40;;;;;;;4.39;100.00;98630.43;1750064;80;21016;-77
2023/01/02 08:44:42;;;;;;;61.20;34.85;;;;;;;4.56;100.00;98631.45;1741509;81;21090;-78
2023/01/02 08:47:09;;;;;;;75.28;41.45;;;;;;;4.78;100.00;98636.61;1743153;80;21194;-77
2023/01/02 08:49:36;;;;;;;69.10;38.95;;;;;;;5.13;100.00;98637.78;1744229;81;21567;-77
2023/01/02 08:52:03;;;;;;;70.25;38.02;;;;;;;5.28;100.00;98632.81;1746127;81;21066;-78
2023/01/02 08:54:30;;;;;;;64.50;35.33;;;;;;;5.37;100.00;98632.77;1750913;81;21487;-78
2023/01/02 08:56:57;;;;;;;57.98;32.65;;;;;;;5.45;100.00;98638.33;1744610;81;21011;-78
2023/01/02 08:59:24;;;;;;;59.83;34.98;;;;;;;5.55;100.00;98628.64;1739413;80;21894;-77
2023/01/02 09:01:51;;;;;;;53.20;31.05;;;;;;;5.63;100.00;98629.64;1740075;80;21035;-78
2023/01/02 09:04:18;;;;;;;49.45;33.10;;;;;;;5.71;100.00;98629.83;1744934;81;21007;-77
2023/01/02 09:06:46;;;;;;;46.42;29.87;;;;;;;5.74;100.00;98619.96;1752036;80;21015;-78
2023/01/02 09:09:14;;;;;;;55.80;34.88;;;;;;;5.79;100.00;98617.91;1752200;80;21556;-79
2023/01/02 09:11:48;;;;;;;65.43;34.83;;;;;;;5.90;100.00;98614.41;1742352;80;21525;-77
2023/01/02 09:14:16;;;;;;;50.90;33.73;;;;;;;5.98;100.00;98610.55;1760854;80;20969;-77
2023/01/02 09:16:44;;;;;;;45.92;29.92;;;;;;;6.04;100.00;98610.96;1740295;81;21030;-78
2023/01/02 09:19:11;;;;;;;55.30;37.45;;;;;;;6.13;100.00;98604.16;1752252;80;20989;-78
2023/01/02 09:21:37;;;;;;;63.00;38.55;;;;;;;6.19;100.00;98604.04;1751706;80;21486;-79
2023/01/02 09:24:06;;;;;;;55.30;36.35;;;;;;;6.26;100.00;98598.53;1758873;80;21027;-77
2023/01/02 09:26:33;;;;;;;63.57;41.63;;;;;;;6.34;100.00;98591.44;1752762;80;21019;-77
2023/01/02 09:29:00;;;;;;;63.23;42.85;;;;;;;6.43;100.00;98598.61;1754809;80;20995;-77
2023/01/02 09:31:27;;;;;;;57.80;36.90;;;;;;;6.48;100.00;98587.92;1748855;80;21504;-79
2023/01/02 09:33:54;;;;;;;64.97;41.63;;;;;;;6.55;100.00;98589.13;1745025;80;21091;-77
2023/01/02 09:36:21;;;;;;;64.37;37.90;;;;;;;6.57;100.00;98590.52;1741434;80;21813;-77
2023/01/02 09:38:52;;;;;;;69.20;41.83;;;;;;;6.64;100.00;98576.39;1753524;81;21014;-77
2023/01/02 09:41:36;;;;;;;73.80;42.62;;;;;;;6.73;100.00;98578.98;1749059;81;20972;-77
2023/01/02 09:44:20;;;;;;;73.05;40.10;;;;;;;6.83;100.00;98573.49;1754177;80;21445;-77
2023/01/02 09:46:54;;;;;;;59.00;34.65;;;;;;;6.92;100.00;98569.34;1743924;80;21369;-77
2023/01/02 09:49:28;;;;;;;52.60;27.07;;;;;;;6.99;100.00;98561.40;1758035;80;21023;-77
2023/01/02 09:51:55;;;;;;;47.05;24.77;;;;;;;7.07;100.00;98556.14;1728938;80;20973;-77
2023/01/02 09:54:29;;;;;;;63.40;24.82;;;;;;;7.20;100.00;98552.33;1768899;80;21041;-78
2023/01/02 09:57:29;;;;;;;81.22;34.60;;;;;;;7.40;100.00;98551.83;1744005;81;21007;-79
2023/01/02 10:00:08;;;;;;;34.83;19.10;;;;;;;7.81;100.00;98549.20;1779411;79;21081;-77
2023/01/02 10:02:53;;;;;;;30.23;13.58;;;;;;;8.20;100.00;98548.11;1746181;80;21005;-79
2023/01/02 10:05:28;;;;;;;400.98;162.82;;;;;;;8.40;100.00;98543.51;1757457;80;21004;-78
2023/01/02 10:08:23;;;;;;;50.50;24.63;;;;;;;8.90;100.00;98545.66;1742980;80;21002;-77
2023/01/02 10:11:11;;;;;;;22.52;15.03;;;;;;;9.16;100.00;98533.18;1752277;80;21153;-77
2023/01/02 10:13:46;;;;;;;25.20;14.13;;;;;;;9.23;100.00;98533.78;1745727;81;21519;-77
2023/01/02 10:16:20;;;;;;;24.90;14.60;;;;;;;9.42;100.00;98531.48;1754111;80;21044;-79
2023/01/02 10:18:50;;;;;;;19.90;11.43;;;;;;;9.51;100.00;98531.28;1730070;81;21035;-79
2023/01/02 10:21:25;;;;;;;20.08;12.75;;;;;;;9.51;100.00;98524.52;1757275;80;20997;-79
2023/01/02 10:24:14;;;;;;;15.75;10.63;;;;;;;9.66;100.00;98510.28;1752472;80;21023;-77
2023/01/02 10:26:46;;;;;;;16.57;8.80;;;;;;;9.74;100.00;98512.46;1758280;80;21035;-77
2023/01/02 10:29:30;;;;;;;20.77;11.88;;;;;;;9.80;100.00;98515.48;1743953;81;21713;-79
2023/01/02 10:32:00;;;;;;;17.48;7.33;;;;;;;9.91;100.00;98500.91;1750222;80;21011;-79
2023/01/02 10:35:05;;;;;;;20.97;11.15;;;;;;;10.04;100.00;98504.50;1744660;80;21043;-77
2023/01/02 10:37:33;;;;;;;15.78;9.20;;;;;;;10.20;100.00;98505.92;1771310;80;21060;-77
2023/01/02 10:40:00;;;;;;;23.57;11.48;;;;;;;10.25;100.00;98493.77;1768402;79;21087;-78
2023/01/02 10:42:27;;;;;;;28.67;15.50;;;;;;;10.31;100.00;98485.41;1751699;79;21143;-77
2023/01/02 10:44:54;;;;;;;20.52;13.45;;;;;;;10.32;100.00;98482.16;1746018;79;21000;-77
2023/01/02 10:47:37;;;;;;;20.43;11.60;;;;;;;10.32;100.00;98482.97;1760301;79;20992;-77
2023/01/02 10:50:07;;;;;;;21.42;11.75;;;;;;;10.38;100.00;98475.67;1752235;79;21054;-79
2023/01/02 10:52:53;;;;;;;18.37;10.25;;;;;;;10.51;100.00;98465.70;1751265;81;21017;-78
2023/01/02 10:55:41;;;;;;;16.67;9.40;;;;;;;10.65;100.00;98465.42;1728495;79;21585;-77
2023/01/02 10:58:25;;;;;;;14.10;9.23;;;;;;;10.75;100.00;98463.27;1772350;79;21027;-77
2023/01/02 11:01:17;;;;;;;38.65;13.72;;;;;;;10.92;100.00;98462.45;1764265;79;21594;-77
2023/01/02 11:03:46;;;;;;;26.48;9.98;;;;;;;11.16;100.00;98449.71;1764690;79;21067;-79
2023/01/02 11:06:27;;;;;;;27.05;11.20;;;;;;;11.32;100.00;98443.18;1751807;79;21096;-77
2023/01/02 11:09:05;;;;;;;15.90;9.33;;;;;;;11.49;100.00;98445.59;1763160;79;21034;-77
2023/01/02 11:11:32;;;;;;;29.87;13.00;;;;;;;11.67;99.68;98442.83;1755266;79;20993;-77
2023/01/02 11:14:06;;;;;;;22.90;11.05;;;;;;;11.78;98.52;98434.36;1754189;79;21009;-79
2023/01/02 11:16:38;;;;;;;16.07;9.00;;;;;;;11.89;98.99;98440.62;1745607;79;21069;-77
2023/01/02 11:19:09;;;;;;;29.92;18.85;;;;;;;11.93;99.24;98432.72;1769632;79;21508;-79
2023/01/02 11:21:35;;;;;;;679.50;402.58;;;;;;;11.98;98.37;98432.16;1750544;79;21459;-77
2023/01/02 11:24:05;;;;;;;120.40;66.65;;;;;;;12.05;96.57;98431.31;1749843;79;21452;-77
2023/01/02 11:26:32;;;;;;;39.48;19.27;;;;;;;12.14;95.98;98426.92;1753827;81;21051;-77
2023/01/02 11:29:06;;;;;;;29.25;13.20;;;;;;;12.18;97.69;98423.09;1769001;79;21559;-79
2023/01/02 11:31:33;;;;;;;36.17;13.72;;;;;;;12.21;96.63;98422.52;1764179;79;21055;-78
2023/01/02 11:34:09;;;;;;;18.23;9.58;;;;;;;12.21;97.55;98423.06;1746595;81;21796;-79
2023/01/02 11:36:36;;;;;;;23.90;11.75;;;;;;;12.16;96.17;98414.96;1719138;81;21070;-79
2023/01/02 11:39:22;;;;;;;42.03;27.62;;;;;;;12.24;96.07;98412.47;1741253;80;21417;-77